sensor_id;sensor_type;location;lat;lon;timestamp;P1;durP1;ratioP1;P2;durP2;ratioP2
16436;SDS011;8328;52.206;21.006;2023-05-29T00:01:45;10.77;;;3.43;;
16436;SDS011;8328;52.206;21.006;2023-05-29T00:04:11;5.03;;;3.07;;
16436;SDS011;8328;52.206;21.006;2023-05-29T00:06:37;6.50;;;3.20;;
16436;SDS011;8328;52.206;21.006;2023-05-29T00:09:03;5.13;;;3.10;;
16436;SDS011;8328;52.206;21.006;2023-05-29T00:11:29;7.83;;;3.30;;
16436;SDS011;8328;52.206;21.006;2023-05-29T00:13:55;6.13;;;3.17;;
16436;SDS011;8328;52.206;21.006;2023-05-29T00:16:22;6.77;;;3.27;;
16436;SDS011;8328;52.206;21.006;2023-05-29T00:18:51;6.50;;;3.40;;
16436;SDS011;8328;52.206;21.006;2023-05-29T00:21:18;7.47;;;3.33;;
16436;SDS011;8328;52.206;21.006;2023-05-29T00:23:44;5.10;;;3.57;;
16436;SDS011;8328;52.206;21.006;2023-05-29T00:26:10;5.17;;;2.97;;
16436;SDS011;8328;52.206;21.006;2023-05-29T00:28:36;6.10;;;3.40;;
16436;SDS011;8328;52.206;21.006;2023-05-29T00:31:02;4.83;;;3.20;;
16436;SDS011;8328;52.206;21.006;2023-05-29T00:33:28;8.37;;;3.27;;
16436;SDS011;8328;52.206;21.006;2023-05-29T00:35:54;4.67;;;3.17;;
16436;SDS011;8328;52.206;21.006;2023-05-29T00:38:20;5.43;;;3.50;;
16436;SDS011;8328;52.206;21.006;2023-05-29T00:40:46;7.40;;;3.50;;
16436;SDS011;8328;52.206;21.006;2023-05-29T00:43:11;4.37;;;3.20;;
16436;SDS011;8328;52.206;21.006;2023-05-29T00:45:37;6.93;;;3.17;;
16436;SDS011;8328;52.206;21.006;2023-05-29T00:48:03;8.83;;;3.50;;
16436;SDS011;8328;52.206;21.006;2023-05-29T00:50:30;7.10;;;3.50;;
16436;SDS011;8328;52.206;21.006;2023-05-29T00:52:57;5.10;;;2.80;;
16436;SDS011;8328;52.206;21.006;2023-05-29T00:55:26;6.37;;;3.10;;
16436;SDS011;8328;52.206;21.006;2023-05-29T00:57:53;5.33;;;3.57;;
16436;SDS011;8328;52.206;21.006;2023-05-29T01:00:19;5.37;;;3.27;;
16436;SDS011;8328;52.206;21.006;2023-05-29T01:02:45;8.90;;;3.97;;
16436;SDS011;8328;52.206;21.006;2023-05-29T01:05:12;5.83;;;4.00;;
16436;SDS011;8328;52.206;21.006;2023-05-29T01:07:40;4.70;;;3.53;;
16436;SDS011;8328;52.206;21.006;2023-05-29T01:10:07;5.73;;;3.90;;
16436;SDS011;8328;52.206;21.006;2023-05-29T01:18:08;11.03;;;4.60;;
16436;SDS011;8328;52.206;21.006;2023-05-29T01:20:47;7.40;;;4.00;;
16436;SDS011;8328;52.206;21.006;2023-05-29T01:23:22;8.57;;;4.10;;
16436;SDS011;8328;52.206;21.006;2023-05-29T01:25:58;6.53;;;4.20;;
16436;SDS011;8328;52.206;21.006;2023-05-29T01:28:32;7.03;;;4.03;;
16436;SDS011;8328;52.206;21.006;2023-05-29T01:31:04;6.33;;;4.00;;
16436;SDS011;8328;52.206;21.006;2023-05-29T01:33:32;5.97;;;3.77;;
16436;SDS011;8328;52.206;21.006;2023-05-29T01:35:58;7.20;;;3.53;;
16436;SDS011;8328;52.206;21.006;2023-05-29T01:38:24;8.13;;;3.43;;
16436;SDS011;8328;52.206;21.006;2023-05-29T01:40:50;5.37;;;3.90;;
16436;SDS011;8328;52.206;21.006;2023-05-29T01:43:16;7.70;;;4.37;;
16436;SDS011;8328;52.206;21.006;2023-05-29T01:45:42;7.17;;;4.30;;
16436;SDS011;8328;52.206;21.006;2023-05-29T01:48:09;9.23;;;4.37;;
16436;SDS011;8328;52.206;21.006;2023-05-29T01:50:35;8.73;;;4.30;;
16436;SDS011;8328;52.206;21.006;2023-05-29T01:53:01;7.30;;;4.37;;
16436;SDS011;8328;52.206;21.006;2023-05-29T01:55:29;7.83;;;3.97;;
16436;SDS011;8328;52.206;21.006;2023-05-29T01:57:55;9.57;;;4.60;;
16436;SDS011;8328;52.206;21.006;2023-05-29T02:00:22;7.57;;;4.23;;
16436;SDS011;8328;52.206;21.006;2023-05-29T02:02:48;8.00;;;4.53;;
16436;SDS011;8328;52.206;21.006;2023-05-29T02:05:14;9.03;;;4.13;;
16436;SDS011;8328;52.206;21.006;2023-05-29T02:07:40;6.27;;;3.80;;
16436;SDS011;8328;52.206;21.006;2023-05-29T02:10:06;6.70;;;3.70;;
16436;SDS011;8328;52.206;21.006;2023-05-29T02:12:32;8.47;;;3.83;;
16436;SDS011;8328;52.206;21.006;2023-05-29T02:14:58;10.33;;;4.20;;
16436;SDS011;8328;52.206;21.006;2023-05-29T02:17:24;5.93;;;3.60;;
16436;SDS011;8328;52.206;21.006;2023-05-29T02:19:50;6.57;;;3.77;;
16436;SDS011;8328;52.206;21.006;2023-05-29T02:22:17;8.30;;;4.00;;
16436;SDS011;8328;52.206;21.006;2023-05-29T02:24:43;12.13;;;4.40;;
16436;SDS011;8328;52.206;21.006;2023-05-29T02:27:09;11.17;;;4.20;;
16436;SDS011;8328;52.206;21.006;2023-05-29T02:29:35;7.27;;;4.00;;
16436;SDS011;8328;52.206;21.006;2023-05-29T02:32:01;12.33;;;4.60;;
16436;SDS011;8328;52.206;21.006;2023-05-29T02:34:27;9.47;;;4.27;;
16436;SDS011;8328;52.206;21.006;2023-05-29T02:36:52;14.93;;;4.67;;
16436;SDS011;8328;52.206;21.006;2023-05-29T02:39:18;12.80;;;5.77;;
16436;SDS011;8328;52.206;21.006;2023-05-29T02:41:44;9.73;;;4.77;;
16436;SDS011;8328;52.206;21.006;2023-05-29T02:44:10;13.23;;;4.77;;
16436;SDS011;8328;52.206;21.006;2023-05-29T02:46:36;8.90;;;4.73;;
16436;SDS011;8328;52.206;21.006;2023-05-29T02:49:02;12.43;;;5.13;;
16436;SDS011;8328;52.206;21.006;2023-05-29T02:51:28;12.33;;;4.60;;
16436;SDS011;8328;52.206;21.006;2023-05-29T02:53:55;13.73;;;4.67;;
16436;SDS011;8328;52.206;21.006;2023-05-29T02:56:20;8.23;;;4.73;;
16436;SDS011;8328;52.206;21.006;2023-05-29T02:58:52;13.80;;;4.60;;
16436;SDS011;8328;52.206;21.006;2023-05-29T03:01:18;6.50;;;4.37;;
16436;SDS011;8328;52.206;21.006;2023-05-29T03:03:44;6.47;;;3.90;;
16436;SDS011;8328;52.206;21.006;2023-05-29T03:06:10;5.60;;;4.40;;
16436;SDS011;8328;52.206;21.006;2023-05-29T03:08:37;12.43;;;4.77;;
16436;SDS011;8328;52.206;21.006;2023-05-29T03:11:09;9.27;;;4.50;;
16436;SDS011;8328;52.206;21.006;2023-05-29T03:13:36;13.57;;;5.37;;
16436;SDS011;8328;52.206;21.006;2023-05-29T03:16:05;14.30;;;4.50;;
16436;SDS011;8328;52.206;21.006;2023-05-29T03:18:33;10.30;;;5.07;;
16436;SDS011;8328;52.206;21.006;2023-05-29T03:20:59;12.03;;;5.10;;
16436;SDS011;8328;52.206;21.006;2023-05-29T03:23:25;13.63;;;5.67;;
16436;SDS011;8328;52.206;21.006;2023-05-29T03:25:51;14.57;;;5.23;;
16436;SDS011;8328;52.206;21.006;2023-05-29T03:28:17;13.17;;;5.10;;
16436;SDS011;8328;52.206;21.006;2023-05-29T03:30:42;12.27;;;5.10;;
16436;SDS011;8328;52.206;21.006;2023-05-29T03:33:08;10.23;;;5.33;;
16436;SDS011;8328;52.206;21.006;2023-05-29T03:35:34;13.17;;;6.03;;
16436;SDS011;8328;52.206;21.006;2023-05-29T03:37:59;13.57;;;5.73;;
16436;SDS011;8328;52.206;21.006;2023-05-29T03:40:25;15.73;;;6.03;;
16436;SDS011;8328;52.206;21.006;2023-05-29T03:42:51;13.27;;;5.70;;
16436;SDS011;8328;52.206;21.006;2023-05-29T03:45:17;15.73;;;6.00;;
16436;SDS011;8328;52.206;21.006;2023-05-29T03:47:43;11.77;;;5.20;;
16436;SDS011;8328;52.206;21.006;2023-05-29T03:50:09;12.37;;;5.30;;
16436;SDS011;8328;52.206;21.006;2023-05-29T03:52:35;13.73;;;5.70;;
16436;SDS011;8328;52.206;21.006;2023-05-29T03:55:01;13.50;;;5.37;;
16436;SDS011;8328;52.206;21.006;2023-05-29T03:57:28;12.07;;;5.93;;
16436;SDS011;8328;52.206;21.006;2023-05-29T03:59:53;9.43;;;5.50;;
16436;SDS011;8328;52.206;21.006;2023-05-29T04:02:19;15.73;;;6.57;;
16436;SDS011;8328;52.206;21.006;2023-05-29T04:04:45;13.43;;;6.13;;
16436;SDS011;8328;52.206;21.006;2023-05-29T04:07:11;10.33;;;5.80;;
16436;SDS011;8328;52.206;21.006;2023-05-29T04:09:37;11.83;;;5.87;;
16436;SDS011;8328;52.206;21.006;2023-05-29T04:12:03;11.43;;;5.53;;
16436;SDS011;8328;52.206;21.006;2023-05-29T04:14:30;9.00;;;5.50;;
16436;SDS011;8328;52.206;21.006;2023-05-29T04:16:56;15.77;;;5.30;;
16436;SDS011;8328;52.206;21.006;2023-05-29T04:19:22;11.87;;;5.33;;
16436;SDS011;8328;52.206;21.006;2023-05-29T04:21:48;11.47;;;5.33;;
16436;SDS011;8328;52.206;21.006;2023-05-29T04:24:14;16.37;;;4.97;;
16436;SDS011;8328;52.206;21.006;2023-05-29T04:26:40;12.00;;;5.47;;
16436;SDS011;8328;52.206;21.006;2023-05-29T04:29:06;18.70;;;7.37;;
16436;SDS011;8328;52.206;21.006;2023-05-29T04:31:33;10.37;;;5.57;;
16436;SDS011;8328;52.206;21.006;2023-05-29T04:34:01;12.17;;;5.23;;
16436;SDS011;8328;52.206;21.006;2023-05-29T04:36:29;10.10;;;5.20;;
16436;SDS011;8328;52.206;21.006;2023-05-29T04:38:57;9.87;;;5.07;;
16436;SDS011;8328;52.206;21.006;2023-05-29T04:41:23;12.50;;;5.63;;
16436;SDS011;8328;52.206;21.006;2023-05-29T04:43:54;7.27;;;4.90;;
16436;SDS011;8328;52.206;21.006;2023-05-29T04:46:21;8.67;;;4.13;;
16436;SDS011;8328;52.206;21.006;2023-05-29T04:48:53;8.27;;;4.00;;
16436;SDS011;8328;52.206;21.006;2023-05-29T04:51:21;12.33;;;4.40;;
16436;SDS011;8328;52.206;21.006;2023-05-29T04:53:48;8.33;;;4.73;;
16436;SDS011;8328;52.206;21.006;2023-05-29T04:56:16;6.90;;;3.30;;
16436;SDS011;8328;52.206;21.006;2023-05-29T04:58:43;5.80;;;3.40;;
16436;SDS011;8328;52.206;21.006;2023-05-29T05:01:09;7.77;;;4.00;;
16436;SDS011;8328;52.206;21.006;2023-05-29T05:03:42;15.17;;;4.07;;
16436;SDS011;8328;52.206;21.006;2023-05-29T05:06:08;5.97;;;3.30;;
16436;SDS011;8328;52.206;21.006;2023-05-29T05:08:35;8.03;;;3.17;;
16436;SDS011;8328;52.206;21.006;2023-05-29T05:11:01;5.30;;;2.60;;
16436;SDS011;8328;52.206;21.006;2023-05-29T05:13:27;6.83;;;3.13;;
16436;SDS011;8328;52.206;21.006;2023-05-29T05:15:53;7.43;;;3.20;;
16436;SDS011;8328;52.206;21.006;2023-05-29T05:18:19;5.20;;;3.20;;
16436;SDS011;8328;52.206;21.006;2023-05-29T05:20:45;8.03;;;2.97;;
16436;SDS011;8328;52.206;21.006;2023-05-29T05:23:11;6.23;;;2.90;;
16436;SDS011;8328;52.206;21.006;2023-05-29T05:25:37;7.37;;;2.73;;
16436;SDS011;8328;52.206;21.006;2023-05-29T05:28:03;6.87;;;2.97;;
16436;SDS011;8328;52.206;21.006;2023-05-29T05:30:30;6.20;;;2.60;;
16436;SDS011;8328;52.206;21.006;2023-05-29T05:32:59;6.07;;;3.03;;
16436;SDS011;8328;52.206;21.006;2023-05-29T05:35:25;6.40;;;2.33;;
16436;SDS011;8328;52.206;21.006;2023-05-29T05:37:50;6.97;;;3.70;;
16436;SDS011;8328;52.206;21.006;2023-05-29T05:40:16;5.80;;;3.33;;
16436;SDS011;8328;52.206;21.006;2023-05-29T05:42:43;9.13;;;4.73;;
16436;SDS011;8328;52.206;21.006;2023-05-29T05:45:09;4.03;;;2.87;;
16436;SDS011;8328;52.206;21.006;2023-05-29T05:47:35;6.97;;;3.47;;
16436;SDS011;8328;52.206;21.006;2023-05-29T05:50:01;7.67;;;5.47;;
16436;SDS011;8328;52.206;21.006;2023-05-29T05:52:26;6.47;;;2.97;;
16436;SDS011;8328;52.206;21.006;2023-05-29T05:54:55;8.63;;;3.90;;
16436;SDS011;8328;52.206;21.006;2023-05-29T05:57:21;5.80;;;3.37;;
16436;SDS011;8328;52.206;21.006;2023-05-29T05:59:47;9.53;;;2.40;;
16436;SDS011;8328;52.206;21.006;2023-05-29T06:02:13;3.13;;;1.80;;
16436;SDS011;8328;52.206;21.006;2023-05-29T06:04:38;7.10;;;2.87;;
16436;SDS011;8328;52.206;21.006;2023-05-29T06:07:05;5.47;;;2.70;;
16436;SDS011;8328;52.206;21.006;2023-05-29T06:09:31;6.77;;;2.40;;
16436;SDS011;8328;52.206;21.006;2023-05-29T06:11:57;7.80;;;2.07;;
16436;SDS011;8328;52.206;21.006;2023-05-29T06:14:24;6.27;;;2.13;;
16436;SDS011;8328;52.206;21.006;2023-05-29T06:16:50;4.20;;;2.17;;
16436;SDS011;8328;52.206;21.006;2023-05-29T06:19:19;6.57;;;2.10;;
16436;SDS011;8328;52.206;21.006;2023-05-29T06:21:45;5.50;;;2.00;;
16436;SDS011;8328;52.206;21.006;2023-05-29T06:24:12;3.20;;;2.37;;
16436;SDS011;8328;52.206;21.006;2023-05-29T06:26:38;5.10;;;2.07;;
16436;SDS011;8328;52.206;21.006;2023-05-29T06:29:04;3.93;;;2.07;;
16436;SDS011;8328;52.206;21.006;2023-05-29T06:31:31;2.80;;;1.90;;
16436;SDS011;8328;52.206;21.006;2023-05-29T06:33:58;5.33;;;2.60;;
16436;SDS011;8328;52.206;21.006;2023-05-29T06:36:24;6.93;;;1.50;;
16436;SDS011;8328;52.206;21.006;2023-05-29T06:38:50;5.63;;;3.17;;
16436;SDS011;8328;52.206;21.006;2023-05-29T06:41:16;4.57;;;1.63;;
16436;SDS011;8328;52.206;21.006;2023-05-29T06:43:43;4.63;;;1.77;;
16436;SDS011;8328;52.206;21.006;2023-05-29T06:46:09;6.60;;;2.20;;
16436;SDS011;8328;52.206;21.006;2023-05-29T06:48:35;3.77;;;1.80;;
16436;SDS011;8328;52.206;21.006;2023-05-29T06:51:02;5.47;;;1.97;;
16436;SDS011;8328;52.206;21.006;2023-05-29T06:53:37;5.17;;;1.80;;
16436;SDS011;8328;52.206;21.006;2023-05-29T06:56:05;7.53;;;2.23;;
16436;SDS011;8328;52.206;21.006;2023-05-29T06:58:31;3.67;;;2.27;;
16436;SDS011;8328;52.206;21.006;2023-05-29T07:00:58;4.27;;;1.73;;
16436;SDS011;8328;52.206;21.006;2023-05-29T07:03:27;7.87;;;2.80;;
16436;SDS011;8328;52.206;21.006;2023-05-29T07:05:54;4.97;;;2.20;;
16436;SDS011;8328;52.206;21.006;2023-05-29T07:08:20;5.77;;;1.73;;
16436;SDS011;8328;52.206;21.006;2023-05-29T07:10:45;5.77;;;2.10;;
16436;SDS011;8328;52.206;21.006;2023-05-29T07:13:14;9.37;;;2.73;;
16436;SDS011;8328;52.206;21.006;2023-05-29T07:15:41;5.47;;;2.40;;
16436;SDS011;8328;52.206;21.006;2023-05-29T07:18:07;3.43;;;2.10;;
16436;SDS011;8328;52.206;21.006;2023-05-29T07:20:33;6.43;;;2.70;;
16436;SDS011;8328;52.206;21.006;2023-05-29T07:22:59;6.07;;;2.10;;
16436;SDS011;8328;52.206;21.006;2023-05-29T07:25:25;5.63;;;2.03;;
16436;SDS011;8328;52.206;21.006;2023-05-29T07:27:51;5.70;;;1.90;;
16436;SDS011;8328;52.206;21.006;2023-05-29T07:30:17;6.47;;;1.77;;
16436;SDS011;8328;52.206;21.006;2023-05-29T07:32:45;5.00;;;1.90;;
16436;SDS011;8328;52.206;21.006;2023-05-29T07:35:11;4.57;;;2.47;;
16436;SDS011;8328;52.206;21.006;2023-05-29T07:37:37;11.63;;;3.60;;
16436;SDS011;8328;52.206;21.006;2023-05-29T07:40:03;7.40;;;2.40;;
16436;SDS011;8328;52.206;21.006;2023-05-29T07:42:31;5.13;;;1.70;;
16436;SDS011;8328;52.206;21.006;2023-05-29T07:44:57;2.30;;;1.20;;
16436;SDS011;8328;52.206;21.006;2023-05-29T07:47:23;5.93;;;1.30;;
16436;SDS011;8328;52.206;21.006;2023-05-29T07:49:49;3.47;;;1.20;;
16436;SDS011;8328;52.206;21.006;2023-05-29T07:52:15;7.37;;;1.80;;
16436;SDS011;8328;52.206;21.006;2023-05-29T07:54:41;4.57;;;1.27;;
16436;SDS011;8328;52.206;21.006;2023-05-29T07:57:07;4.83;;;1.30;;
16436;SDS011;8328;52.206;21.006;2023-05-29T07:59:36;4.33;;;1.53;;
16436;SDS011;8328;52.206;21.006;2023-05-29T08:02:02;4.97;;;1.47;;
16436;SDS011;8328;52.206;21.006;2023-05-29T08:04:29;4.83;;;1.33;;
16436;SDS011;8328;52.206;21.006;2023-05-29T08:06:55;4.33;;;1.40;;
16436;SDS011;8328;52.206;21.006;2023-05-29T08:09:21;5.73;;;1.47;;
16436;SDS011;8328;52.206;21.006;2023-05-29T08:11:48;2.07;;;1.50;;
16436;SDS011;8328;52.206;21.006;2023-05-29T08:14:14;2.17;;;1.30;;
16436;SDS011;8328;52.206;21.006;2023-05-29T08:16:40;3.00;;;1.47;;
16436;SDS011;8328;52.206;21.006;2023-05-29T08:19:08;2.90;;;1.33;;
16436;SDS011;8328;52.206;21.006;2023-05-29T08:21:34;3.33;;;1.70;;
16436;SDS011;8328;52.206;21.006;2023-05-29T08:24:03;3.87;;;1.90;;
16436;SDS011;8328;52.206;21.006;2023-05-29T08:26:30;3.83;;;1.80;;
16436;SDS011;8328;52.206;21.006;2023-05-29T08:28:56;5.07;;;1.90;;
16436;SDS011;8328;52.206;21.006;2023-05-29T08:31:22;10.43;;;2.20;;
16436;SDS011;8328;52.206;21.006;2023-05-29T08:33:51;6.27;;;2.00;;
16436;SDS011;8328;52.206;21.006;2023-05-29T08:36:18;4.13;;;1.50;;
16436;SDS011;8328;52.206;21.006;2023-05-29T08:38:50;4.93;;;2.10;;
16436;SDS011;8328;52.206;21.006;2023-05-29T08:41:21;5.33;;;1.67;;
16436;SDS011;8328;52.206;21.006;2023-05-29T08:43:59;7.03;;;2.00;;
16436;SDS011;8328;52.206;21.006;2023-05-29T08:46:31;6.30;;;1.70;;
16436;SDS011;8328;52.206;21.006;2023-05-29T08:48:58;5.20;;;1.90;;
16436;SDS011;8328;52.206;21.006;2023-05-29T08:51:27;6.23;;;2.43;;
16436;SDS011;8328;52.206;21.006;2023-05-29T08:53:57;4.20;;;1.97;;
16436;SDS011;8328;52.206;21.006;2023-05-29T08:56:23;4.07;;;1.80;;
16436;SDS011;8328;52.206;21.006;2023-05-29T08:58:49;6.23;;;2.23;;
16436;SDS011;8328;52.206;21.006;2023-05-29T09:01:17;4.50;;;1.90;;
16436;SDS011;8328;52.206;21.006;2023-05-29T09:03:52;5.60;;;2.23;;
16436;SDS011;8328;52.206;21.006;2023-05-29T09:06:19;6.03;;;1.93;;
16436;SDS011;8328;52.206;21.006;2023-05-29T09:08:50;5.83;;;2.03;;
16436;SDS011;8328;52.206;21.006;2023-05-29T09:11:17;3.80;;;1.57;;
16436;SDS011;8328;52.206;21.006;2023-05-29T09:13:43;3.10;;;1.70;;
16436;SDS011;8328;52.206;21.006;2023-05-29T09:16:09;2.63;;;1.87;;
16436;SDS011;8328;52.206;21.006;2023-05-29T09:18:35;5.60;;;2.17;;
16436;SDS011;8328;52.206;21.006;2023-05-29T09:21:05;3.67;;;1.80;;
16436;SDS011;8328;52.206;21.006;2023-05-29T09:23:35;6.33;;;2.13;;
16436;SDS011;8328;52.206;21.006;2023-05-29T09:26:02;5.47;;;2.00;;
16436;SDS011;8328;52.206;21.006;2023-05-29T09:28:29;6.37;;;2.20;;
16436;SDS011;8328;52.206;21.006;2023-05-29T09:30:58;8.60;;;2.20;;
16436;SDS011;8328;52.206;21.006;2023-05-29T09:33:24;6.13;;;3.63;;
16436;SDS011;8328;52.206;21.006;2023-05-29T09:35:51;6.03;;;2.13;;
16436;SDS011;8328;52.206;21.006;2023-05-29T09:38:17;6.43;;;2.17;;
16436;SDS011;8328;52.206;21.006;2023-05-29T09:40:45;8.17;;;3.20;;
16436;SDS011;8328;52.206;21.006;2023-05-29T09:43:12;5.10;;;2.00;;
16436;SDS011;8328;52.206;21.006;2023-05-29T09:45:42;7.77;;;1.87;;
16436;SDS011;8328;52.206;21.006;2023-05-29T09:48:13;9.93;;;2.20;;
16436;SDS011;8328;52.206;21.006;2023-05-29T09:50:40;28.83;;;3.80;;
16436;SDS011;8328;52.206;21.006;2023-05-29T09:53:19;13.37;;;2.93;;
16436;SDS011;8328;52.206;21.006;2023-05-29T09:55:49;6.73;;;2.57;;
16436;SDS011;8328;52.206;21.006;2023-05-29T09:58:19;7.13;;;2.43;;
16436;SDS011;8328;52.206;21.006;2023-05-29T10:00:46;4.33;;;2.30;;
16436;SDS011;8328;52.206;21.006;2023-05-29T10:03:13;4.60;;;2.23;;
16436;SDS011;8328;52.206;21.006;2023-05-29T10:05:43;4.47;;;2.13;;
16436;SDS011;8328;52.206;21.006;2023-05-29T10:08:12;5.00;;;2.10;;
16436;SDS011;8328;52.206;21.006;2023-05-29T10:10:46;4.83;;;2.17;;
16436;SDS011;8328;52.206;21.006;2023-05-29T10:13:19;3.63;;;2.30;;
16436;SDS011;8328;52.206;21.006;2023-05-29T10:15:49;3.93;;;2.10;;
16436;SDS011;8328;52.206;21.006;2023-05-29T10:18:21;5.57;;;2.50;;
16436;SDS011;8328;52.206;21.006;2023-05-29T10:20:59;4.83;;;2.27;;
16436;SDS011;8328;52.206;21.006;2023-05-29T10:23:26;5.33;;;2.20;;
16436;SDS011;8328;52.206;21.006;2023-05-29T10:25:57;6.47;;;2.13;;
16436;SDS011;8328;52.206;21.006;2023-05-29T10:28:29;8.33;;;2.40;;
16436;SDS011;8328;52.206;21.006;2023-05-29T10:31:08;7.53;;;2.67;;
16436;SDS011;8328;52.206;21.006;2023-05-29T10:36:18;6.77;;;2.33;;
16436;SDS011;8328;52.206;21.006;2023-05-29T10:38:47;6.60;;;2.63;;
16436;SDS011;8328;52.206;21.006;2023-05-29T10:41:28;5.70;;;2.50;;
16436;SDS011;8328;52.206;21.006;2023-05-29T10:43:54;6.87;;;2.70;;
16436;SDS011;8328;52.206;21.006;2023-05-29T10:46:21;5.20;;;2.77;;
16436;SDS011;8328;52.206;21.006;2023-05-29T10:49:15;6.57;;;2.70;;
16436;SDS011;8328;52.206;21.006;2023-05-29T10:51:44;5.03;;;2.30;;
16436;SDS011;8328;52.206;21.006;2023-05-29T10:54:10;6.60;;;2.70;;
16436;SDS011;8328;52.206;21.006;2023-05-29T10:56:36;7.33;;;2.23;;
16436;SDS011;8328;52.206;21.006;2023-05-29T10:59:03;7.67;;;2.70;;
16436;SDS011;8328;52.206;21.006;2023-05-29T11:01:29;4.13;;;2.50;;
16436;SDS011;8328;52.206;21.006;2023-05-29T11:06:41;6.43;;;2.57;;
16436;SDS011;8328;52.206;21.006;2023-05-29T11:09:25;12.40;;;2.63;;
16436;SDS011;8328;52.206;21.006;2023-05-29T11:15:05;5.10;;;2.40;;
16436;SDS011;8328;52.206;21.006;2023-05-29T11:20:05;6.40;;;2.53;;
16436;SDS011;8328;52.206;21.006;2023-05-29T11:25:23;6.03;;;2.50;;
16436;SDS011;8328;52.206;21.006;2023-05-29T11:27:49;6.93;;;2.50;;
16436;SDS011;8328;52.206;21.006;2023-05-29T11:30:19;5.23;;;2.90;;
16436;SDS011;8328;52.206;21.006;2023-05-29T11:32:46;9.20;;;3.27;;
16436;SDS011;8328;52.206;21.006;2023-05-29T11:35:12;3.77;;;2.43;;
16436;SDS011;8328;52.206;21.006;2023-05-29T11:37:39;7.23;;;2.57;;
16436;SDS011;8328;52.206;21.006;2023-05-29T11:40:11;10.10;;;2.77;;
16436;SDS011;8328;52.206;21.006;2023-05-29T11:42:41;8.23;;;3.37;;
16436;SDS011;8328;52.206;21.006;2023-05-29T11:47:57;4.90;;;2.70;;
16436;SDS011;8328;52.206;21.006;2023-05-29T11:50:27;3.93;;;2.63;;
16436;SDS011;8328;52.206;21.006;2023-05-29T11:52:55;4.90;;;2.70;;
16436;SDS011;8328;52.206;21.006;2023-05-29T11:55:23;7.57;;;2.90;;
16436;SDS011;8328;52.206;21.006;2023-05-29T11:57:51;4.60;;;2.60;;
16436;SDS011;8328;52.206;21.006;2023-05-29T12:00:22;10.23;;;2.73;;
16436;SDS011;8328;52.206;21.006;2023-05-29T12:02:49;10.03;;;2.63;;
16436;SDS011;8328;52.206;21.006;2023-05-29T12:05:17;7.60;;;2.37;;
16436;SDS011;8328;52.206;21.006;2023-05-29T12:07:50;5.53;;;2.23;;
16436;SDS011;8328;52.206;21.006;2023-05-29T12:10:18;5.77;;;2.60;;
16436;SDS011;8328;52.206;21.006;2023-05-29T12:12:56;7.90;;;3.13;;
16436;SDS011;8328;52.206;21.006;2023-05-29T12:15:23;6.50;;;2.77;;
16436;SDS011;8328;52.206;21.006;2023-05-29T12:17:50;7.93;;;2.63;;
16436;SDS011;8328;52.206;21.006;2023-05-29T12:20:17;3.63;;;2.40;;
16436;SDS011;8328;52.206;21.006;2023-05-29T12:22:44;4.30;;;2.47;;
16436;SDS011;8328;52.206;21.006;2023-05-29T12:27:42;9.50;;;2.73;;
16436;SDS011;8328;52.206;21.006;2023-05-29T12:30:16;7.57;;;2.50;;
16436;SDS011;8328;52.206;21.006;2023-05-29T12:32:49;7.90;;;2.90;;
16436;SDS011;8328;52.206;21.006;2023-05-29T12:35:22;4.90;;;3.10;;
16436;SDS011;8328;52.206;21.006;2023-05-29T12:40:20;5.27;;;2.00;;
16436;SDS011;8328;52.206;21.006;2023-05-29T12:42:54;4.67;;;2.10;;
16436;SDS011;8328;52.206;21.006;2023-05-29T12:45:21;6.90;;;1.90;;
16436;SDS011;8328;52.206;21.006;2023-05-29T12:47:57;4.40;;;2.53;;
16436;SDS011;8328;52.206;21.006;2023-05-29T12:50:30;4.53;;;2.23;;
16436;SDS011;8328;52.206;21.006;2023-05-29T12:52:58;5.17;;;2.03;;
16436;SDS011;8328;52.206;21.006;2023-05-29T12:55:26;4.53;;;2.00;;
16436;SDS011;8328;52.206;21.006;2023-05-29T12:57:53;5.40;;;1.70;;
16436;SDS011;8328;52.206;21.006;2023-05-29T13:00:20;4.13;;;2.13;;
16436;SDS011;8328;52.206;21.006;2023-05-29T13:02:47;4.47;;;2.07;;
16436;SDS011;8328;52.206;21.006;2023-05-29T13:05:14;7.23;;;2.30;;
16436;SDS011;8328;52.206;21.006;2023-05-29T13:07:41;5.00;;;1.90;;
16436;SDS011;8328;52.206;21.006;2023-05-29T13:10:08;3.47;;;1.97;;
16436;SDS011;8328;52.206;21.006;2023-05-29T13:12:34;5.97;;;2.13;;
16436;SDS011;8328;52.206;21.006;2023-05-29T13:15:00;4.30;;;2.10;;
16436;SDS011;8328;52.206;21.006;2023-05-29T13:17:26;3.03;;;2.00;;
16436;SDS011;8328;52.206;21.006;2023-05-29T13:19:52;4.30;;;1.73;;
16436;SDS011;8328;52.206;21.006;2023-05-29T13:22:18;3.30;;;1.93;;
16436;SDS011;8328;52.206;21.006;2023-05-29T13:24:45;4.53;;;2.63;;
16436;SDS011;8328;52.206;21.006;2023-05-29T13:27:11;4.83;;;2.20;;
16436;SDS011;8328;52.206;21.006;2023-05-29T13:29:41;7.07;;;2.05;;
16436;SDS011;8328;52.206;21.006;2023-05-29T13:32:07;3.35;;;2.25;;
16436;SDS011;8328;52.206;21.006;2023-05-29T13:34:33;6.47;;;2.40;;
16436;SDS011;8328;52.206;21.006;2023-05-29T13:37:00;4.05;;;1.98;;
16436;SDS011;8328;52.206;21.006;2023-05-29T13:39:27;4.03;;;2.05;;
16436;SDS011;8328;52.206;21.006;2023-05-29T13:41:56;4.07;;;2.30;;
16436;SDS011;8328;52.206;21.006;2023-05-29T13:44:21;5.43;;;2.33;;
16436;SDS011;8328;52.206;21.006;2023-05-29T13:46:47;6.43;;;2.28;;
16436;SDS011;8328;52.206;21.006;2023-05-29T13:49:13;2.45;;;2.20;;
16436;SDS011;8328;52.206;21.006;2023-05-29T13:51:38;4.43;;;2.75;;
16436;SDS011;8328;52.206;21.006;2023-05-29T13:54:04;2.53;;;1.85;;
16436;SDS011;8328;52.206;21.006;2023-05-29T13:56:30;3.30;;;2.08;;
16436;SDS011;8328;52.206;21.006;2023-05-29T13:58:56;3.17;;;2.03;;
16436;SDS011;8328;52.206;21.006;2023-05-29T14:01:24;5.20;;;2.00;;
16436;SDS011;8328;52.206;21.006;2023-05-29T14:03:50;7.38;;;3.00;;
16436;SDS011;8328;52.206;21.006;2023-05-29T14:06:16;2.77;;;2.00;;
16436;SDS011;8328;52.206;21.006;2023-05-29T14:08:42;2.73;;;2.00;;
16436;SDS011;8328;52.206;21.006;2023-05-29T14:11:07;3.63;;;1.87;;
16436;SDS011;8328;52.206;21.006;2023-05-29T14:13:33;3.40;;;1.63;;
16436;SDS011;8328;52.206;21.006;2023-05-29T14:15:59;4.63;;;2.40;;
16436;SDS011;8328;52.206;21.006;2023-05-29T14:18:25;2.43;;;1.87;;
16436;SDS011;8328;52.206;21.006;2023-05-29T14:20:50;4.10;;;1.93;;
16436;SDS011;8328;52.206;21.006;2023-05-29T14:23:16;4.03;;;2.90;;
16436;SDS011;8328;52.206;21.006;2023-05-29T14:25:42;4.32;;;2.10;;
16436;SDS011;8328;52.206;21.006;2023-05-29T14:28:09;5.93;;;2.42;;
16436;SDS011;8328;52.206;21.006;2023-05-29T14:30:35;5.65;;;2.15;;
16436;SDS011;8328;52.206;21.006;2023-05-29T14:33:02;3.20;;;2.17;;
16436;SDS011;8328;52.206;21.006;2023-05-29T14:35:28;7.63;;;2.28;;
16436;SDS011;8328;52.206;21.006;2023-05-29T14:37:54;3.90;;;2.10;;
16436;SDS011;8328;52.206;21.006;2023-05-29T14:40:20;5.85;;;1.92;;
16436;SDS011;8328;52.206;21.006;2023-05-29T14:42:46;3.47;;;2.22;;
16436;SDS011;8328;52.206;21.006;2023-05-29T14:45:11;2.05;;;1.80;;
16436;SDS011;8328;52.206;21.006;2023-05-29T14:47:37;4.88;;;1.90;;
16436;SDS011;8328;52.206;21.006;2023-05-29T14:50:04;2.95;;;1.98;;
16436;SDS011;8328;52.206;21.006;2023-05-29T14:52:30;3.63;;;2.30;;
16436;SDS011;8328;52.206;21.006;2023-05-29T14:54:56;2.67;;;1.92;;
16436;SDS011;8328;52.206;21.006;2023-05-29T14:57:22;3.10;;;1.95;;
16436;SDS011;8328;52.206;21.006;2023-05-29T14:59:48;4.45;;;2.10;;
16436;SDS011;8328;52.206;21.006;2023-05-29T15:02:15;2.58;;;2.00;;
16436;SDS011;8328;52.206;21.006;2023-05-29T15:04:41;3.53;;;2.10;;
16436;SDS011;8328;52.206;21.006;2023-05-29T15:07:07;6.13;;;2.22;;
16436;SDS011;8328;52.206;21.006;2023-05-29T15:09:35;2.88;;;1.70;;
16436;SDS011;8328;52.206;21.006;2023-05-29T15:12:01;5.40;;;2.03;;
16436;SDS011;8328;52.206;21.006;2023-05-29T15:14:28;2.47;;;1.73;;